Time;durP1;ratioP1;P1;durP2;ratioP2;P2;SDS_P1;SDS_P2;PMS_P1;PMS_P2;Temp;Humidity;BMP_temperature;BMP_pressure;BME280_temperature;BME280_humidity;BME280_pressure;Samples;Min_cycle;Max_cycle;Signal;HPM_P1;HPM_P2
2021/06/18 00:00:38;;;;;;;5.80;5.13;;;;;;;24.55;71.09;100604.50;4911270;29;20589;-76
2021/06/18 00:03:06;;;;;;;5.90;5.43;;;;;;;24.17;73.51;100611.19;4923677;29;20242;-77
2021/06/18 00:05:37;;;;;;;5.82;5.32;;;;;;;24.19;73.58;100617.16;4915223;29;20231;-76
2021/06/18 00:08:03;;;;;;;5.72;5.25;;;;;;;24.21;72.89;100606.50;4915920;29;20195;-77
2021/06/18 00:10:28;;;;;;;6.03;5.03;;;;;;;24.36;72.88;100596.19;4898103;29;20246;-76
2021/06/18 00:12:59;;;;;;;6.00;5.40;;;;;;;24.03;75.53;100602.56;4912302;29;20221;-76
2021/06/18 00:15:25;;;;;;;5.47;5.07;;;;;;;23.87;78.44;100610.09;4908060;29;20277;-76
2021/06/18 00:17:50;;;;;;;5.47;4.97;;;;;;;23.86;77.36;100605.69;4896578;29;20188;-76
2021/06/18 00:20:16;;;;;;;6.03;5.53;;;;;;;24.16;76.62;100602.06;4924954;28;20187;-76
2021/06/18 00:22:42;;;;;;;5.72;5.22;;;;;;;23.96;78.59;100602.38;4899276;29;20574;-76
2021/06/18 00:25:10;;;;;;;5.80;5.30;;;;;;;23.88;79.80;100616.44;4917349;28;20206;-76
2021/06/18 00:27:36;;;;;;;6.28;5.35;;;;;;;23.96;79.28;100616.25;4917714;29;20566;-76
2021/06/18 00:30:05;;;;;;;6.95;5.35;;;;;;;24.06;78.10;100597.03;4914271;29;20195;-75
2021/06/18 00:32:31;;;;;;;5.93;5.40;;;;;;;24.11;77.87;100599.56;4916772;29;20594;-78
2021/06/18 00:34:56;;;;;;;6.93;6.18;;;;;;;24.00;77.94;100614.38;4903103;29;20197;-77
2021/06/18 00:37:22;;;;;;;6.03;5.43;;;;;;;23.81;77.50;100622.66;4934434;28;20238;-76
2021/06/18 00:39:47;;;;;;;6.60;5.95;;;;;;;23.92;76.74;100611.78;4918914;29;20261;-76
2021/06/18 00:42:13;;;;;;;5.97;5.47;;;;;;;23.67;77.50;100627.84;4902224;29;20227;-79
2021/06/18 00:44:41;;;;;;;6.18;5.57;;;;;;;23.71;77.91;100617.63;4918637;29;20192;-75
2021/06/18 00:47:15;;;;;;;6.25;5.75;;;;;;;23.85;77.03;100615.19;4918133;29;20730;-76
2021/06/18 00:49:41;;;;;;;6.38;5.78;;;;;;;23.64;77.79;100620.25;4904611;29;20906;-75
2021/06/18 00:52:07;;;;;;;7.82;5.95;;;;;;;23.56;78.87;100608.50;4917668;29;20227;-77
2021/06/18 00:54:32;;;;;;;6.32;5.80;;;;;;;23.72;78.54;100599.03;4897239;29;20189;-76
2021/06/18 00:57:01;;;;;;;7.20;6.57;;;;;;;23.66;79.15;100587.41;4942683;29;20223;-75
2021/06/18 00:59:26;;;;;;;6.78;6.20;;;;;;;23.24;80.98;100601.31;4921576;29;20807;-75
2021/06/18 01:01:57;;;;;;;6.75;6.15;;;;;;;23.29;80.74;100601.06;4933902;28;20325;-75
2021/06/18 01:04:26;;;;;;;7.63;6.38;;;;;;;23.32;80.79;100598.38;4918243;29;20196;-76
2021/06/18 01:07:04;;;;;;;7.03;6.40;;;;;;;23.24;81.56;100596.59;4934084;29;20251;-76
2021/06/18 01:09:33;;;;;;;7.15;6.55;;;;;;;23.23;81.26;100596.94;4919243;29;20192;-76
2021/06/18 01:12:05;;;;;;;6.75;6.05;;;;;;;23.32;81.15;100597.59;4901704;29;20231;-76
2021/06/18 01:14:37;;;;;;;6.97;6.30;;;;;;;23.23;81.84;100589.44;4918434;29;20202;-78
2021/06/18 01:17:06;;;;;;;7.78;7.07;;;;;;;23.14;82.40;100582.44;4935299;28;20713;-76
2021/06/18 01:20:17;;;;;;;7.38;6.78;;;;;;;23.28;82.01;100585.59;4918448;29;20278;-77
2021/06/18 01:22:45;;;;;;;7.22;6.60;;;;;;;23.11;82.96;100574.84;4933927;29;20231;-77
2021/06/18 01:25:18;;;;;;;8.13;7.32;;;;;;;22.92;84.40;100580.28;4921701;28;20587;-76
2021/06/18 01:28:06;;;;;;;7.35;6.75;;;;;;;22.82;85.52;100582.75;4935402;29;20215;-77
2021/06/18 01:30:32;;;;;;;8.00;7.30;;;;;;;22.68;85.35;100587.09;4898297;29;20236;-77
2021/06/18 01:33:03;;;;;;;8.20;7.50;;;;;;;22.74;86.28;100574.59;4899680;29;20207;-77
2021/06/18 01:35:39;;;;;;;8.18;7.47;;;;;;;22.76;86.18;100569.50;4933594;28;20235;-77
2021/06/18 01:38:09;;;;;;;8.40;7.43;;;;;;;22.66;86.74;100561.72;4918419;29;20677;-77
2021/06/18 01:40:37;;;;;;;8.45;7.70;;;;;;;22.65;87.40;100568.38;4916532;29;20223;-77
2021/06/18 01:43:06;;;;;;;8.55;7.75;;;;;;;22.62;87.89;100566.31;4917912;29;21069;-77
2021/06/18 01:45:31;;;;;;;8.07;7.13;;;;;;;22.62;87.43;100560.78;4917482;29;20693;-77
2021/06/18 01:47:57;;;;;;;8.55;7.85;;;;;;;22.61;87.90;100557.22;4902487;29;20183;-77
2021/06/18 01:50:26;;;;;;;8.35;7.60;;;;;;;22.44;88.41;100553.97;4897744;29;20220;-78
2021/06/18 01:53:14;;;;;;;8.52;7.63;;;;;;;22.31;90.17;100544.09;4930455;29;20562;-77
2021/06/18 01:55:40;;;;;;;8.95;8.18;;;;;;;22.38;90.00;100543.47;4917258;28;20310;-77
2021/06/18 01:58:08;;;;;;;8.77;7.95;;;;;;;22.29;90.80;100540.88;4933298;29;20215;-78
2021/06/18 02:00:37;;;;;;;8.75;7.95;;;;;;;22.28;91.14;100549.53;4916330;29;20227;-77
2021/06/18 02:03:04;;;;;;;8.80;7.70;;;;;;;22.20;91.73;100544.94;4902168;29;20259;-77
2021/06/18 02:05:30;;;;;;;8.55;7.78;;;;;;;21.84;94.39;100549.72;4917378;29;20314;-76
2021/06/18 02:07:56;;;;;;;8.23;7.47;;;;;;;21.81;93.89;100555.94;4917634;29;20222;-76
2021/06/18 02:10:27;;;;;;;8.88;7.45;;;;;;;21.76;95.33;100558.97;4916632;28;20267;-76
2021/06/18 02:13:00;;;;;;;8.65;7.40;;;;;;;21.97;94.23;100556.84;4903160;29;20266;-77
2021/06/18 02:15:25;;;;;;;8.55;7.75;;;;;;;21.86;94.79;100552.94;4916881;28;20953;-76
2021/06/18 02:17:53;;;;;;;8.15;7.40;;;;;;;22.09;93.42;100552.09;4901426;29;20192;-77
2021/06/18 02:20:22;;;;;;;7.97;7.28;;;;;;;22.08;93.31;100551.28;4932005;28;20259;-77
2021/06/18 02:22:50;;;;;;;8.45;7.65;;;;;;;22.11;93.38;100549.78;4902278;29;20199;-77
2021/06/18 02:25:17;;;;;;;7.65;7.05;;;;;;;22.10;93.11;100548.97;4921525;28;20680;-76
2021/06/18 02:27:45;;;;;;;8.65;7.85;;;;;;;22.07;93.31;100555.22;4918954;29;20239;-75
2021/06/18 02:30:12;;;;;;;8.65;7.78;;;;;;;22.14;93.11;100554.59;4915863;28;20194;-77
2021/06/18 02:32:42;;;;;;;10.45;7.70;;;;;;;22.02;93.83;100558.22;4899755;29;20220;-76
2021/06/18 02:35:12;;;;;;;7.72;7.03;;;;;;;21.88;95.50;100556.19;4916731;29;20187;-76
2021/06/18 02:37:41;;;;;;;8.25;7.53;;;;;;;22.08;94.34;100551.28;4917395;29;20600;-76
2021/06/18 02:40:09;;;;;;;8.50;7.80;;;;;;;22.02;94.08;100558.22;4931892;28;20192;-77
2021/06/18 02:42:37;;;;;;;8.43;7.72;;;;;;;21.95;94.40;100556.41;4917545;29;20218;-77
2021/06/18 02:45:06;;;;;;;8.30;7.50;;;;;;;21.78;95.41;100556.66;4917180;29;20192;-77
2021/06/18 02:47:47;;;;;;;8.38;7.53;;;;;;;21.91;95.42;100555.50;4901091;29;20259;-76
2021/06/18 02:50:23;;;;;;;8.48;7.75;;;;;;;21.96;95.39;100553.28;4917228;28;20191;-75
2021/06/18 02:53:00;;;;;;;10.95;8.40;;;;;;;21.96;95.45;100550.53;4921303;29;20211;-77
2021/06/18 02:55:48;;;;;;;9.50;8.50;;;;;;;21.96;95.99;100555.22;4932922;28;20901;-76
2021/06/18 02:58:32;;;;;;;8.63;7.93;;;;;;;21.71;97.24;100559.19;4897259;29;20206;-77
2021/06/18 03:01:00;;;;;;;9.40;8.50;;;;;;;21.73;96.95;100560.47;4896878;29;20243;-76
2021/06/18 03:03:38;;;;;;;9.73;8.82;;;;;;;21.69;96.90;100553.22;4898594;29;20236;-76
2021/06/18 03:06:04;;;;;;;10.23;9.10;;;;;;;21.69;97.06;100553.22;4909125;29;20223;-77
2021/06/18 03:08:34;;;;;;;9.68;8.88;;;;;;;21.65;97.14;100557.84;4932831;29;20191;-78
2021/06/18 03:10:59;;;;;;;10.07;9.15;;;;;;;21.57;97.53;100561.50;4930706;29;20231;-76
2021/06/18 03:13:30;;;;;;;10.45;9.45;;;;;;;21.62;97.64;100564.03;4894791;29;20690;-75
2021/06/18 03:15:58;;;;;;;10.65;9.57;;;;;;;21.64;97.80;100568.06;4921335;29;20243;-76
2021/06/18 03:18:24;;;;;;;10.25;9.35;;;;;;;21.60;98.12;100560.81;4900890;29;20222;-76
2021/06/18 03:20:54;;;;;;;10.00;9.20;;;;;;;21.62;98.22;100564.03;4912292;29;20311;-77
2021/06/18 03:23:19;;;;;;;9.57;8.77;;;;;;;21.68;98.12;100562.66;4901618;29;20200;-75
2021/06/18 03:25:50;;;;;;;9.70;8.90;;;;;;;21.60;98.70;100562.78;4902547;29;20215;-75
2021/06/18 03:28:15;;;;;;;10.20;9.30;;;;;;;21.58;98.99;100565.09;4917471;29;20223;-75
2021/06/18 03:30:49;;;;;;;10.25;9.27;;;;;;;21.52;99.51;100564.53;4900182;29;20867;-78
2021/06/18 03:33:18;;;;;;;11.00;9.90;;;;;;;21.73;98.59;100559.66;4918370;29;20208;-76
2021/06/18 03:35:45;;;;;;;10.38;9.38;;;;;;;21.55;98.90;100563.81;4916749;29;20639;-76
2021/06/18 03:38:12;;;;;;;9.75;8.85;;;;;;;21.67;98.80;100561.84;4932776;29;20230;-77
2021/06/18 03:40:39;;;;;;;10.15;9.13;;;;;;;21.75;98.34;100562.88;4900640;29;20219;-76
2021/06/18 03:43:05;;;;;;;10.13;9.23;;;;;;;21.79;98.30;100558.25;4916989;29;20251;-75
2021/06/18 03:45:33;;;;;;;10.02;9.13;;;;;;;21.89;98.17;100571.63;4898489;29;20227;-75
2021/06/18 03:48:00;;;;;;;9.70;8.90;;;;;;;22.02;97.35;100563.75;4898525;29;20185;-76
2021/06/18 03:50:28;;;;;;;10.10;9.25;;;;;;;22.08;96.99;100565.09;4897243;28;20645;-75
2021/06/18 03:52:53;;;;;;;11.02;9.85;;;;;;;22.04;97.36;100575.28;4915875;29;20330;-77
2021/06/18 03:55:19;;;;;;;10.48;9.57;;;;;;;22.07;96.77;100577.34;4910395;29;20188;-75
2021/06/18 03:57:48;;;;;;;10.13;9.18;;;;;;;22.07;96.91;100580.13;4901295;29;20195;-76
2021/06/18 04:00:14;;;;;;;10.25;9.45;;;;;;;22.07;97.05;100571.81;4913766;29;20207;-76
2021/06/18 04:02:40;;;;;;;10.13;9.23;;;;;;;22.13;96.95;100573.19;4913898;29;20211;-76
2021/06/18 04:05:09;;;;;;;10.38;9.50;;;;;;;22.32;95.82;100573.38;4914408;29;20191;-77
2021/06/18 04:07:34;;;;;;;10.27;9.38;;;;;;;22.33;95.28;100585.28;4930132;29;20219;-77
2021/06/18 04:10:01;;;;;;;9.82;9.05;;;;;;;22.38;95.61;100583.06;4912882;29;20200;-77
2021/06/18 04:12:29;;;;;;;10.20;9.32;;;;;;;22.29;96.46;100590.69;4898073;29;20222;-77
2021/06/18 04:14:55;;;;;;;9.90;9.10;;;;;;;22.54;95.17;100587.47;4898317;29;20192;-77
2021/06/18 04:17:23;;;;;;;10.57;9.68;;;;;;;22.60;94.96;100590.78;4897430;29;20216;-77
2021/06/18 04:19:50;;;;;;;10.27;9.32;;;;;;;22.57;95.06;100586.78;4924872;29;20190;-79
2021/06/18 04:22:18;;;;;;;10.07;9.23;;;;;;;22.63;95.06;100587.34;4900615;29;20242;-77
2021/06/18 04:24:47;;;;;;;9.95;9.23;;;;;;;22.65;95.47;100576.69;4901425;29;20188;-77
2021/06/18 04:27:14;;;;;;;10.38;9.50;;;;;;;22.66;95.79;100584.66;4932590;28;20219;-77
2021/06/18 04:29:40;;;;;;;10.48;9.48;;;;;;;22.72;96.07;100579.69;4917145;29;20653;-77
2021/06/18 04:32:10;;;;;;;10.43;9.43;;;;;;;22.91;95.38;100581.44;4932068;29;20231;-78
2021/06/18 04:34:38;;;;;;;10.10;9.30;;;;;;;22.94;96.23;100572.41;4901260;29;20188;-78
2021/06/18 04:37:07;;;;;;;10.57;9.68;;;;;;;23.04;96.27;100582.16;4916582;29;20215;-77
2021/06/18 04:39:34;;;;;;;10.75;9.52;;;;;;;23.11;96.12;100580.38;4916993;29;20674;-76
2021/06/18 04:42:04;;;;;;;10.80;9.70;;;;;;;23.09;96.60;100579.94;4916160;29;20300;-77
2021/06/18 04:44:30;;;;;;;10.75;9.75;;;;;;;23.26;95.64;100565.75;4933803;29;20187;-78
2021/06/18 04:46:58;;;;;;;11.10;10.15;;;;;;;23.31;93.17;100573.78;4917818;29;20258;-76
2021/06/18 04:49:26;;;;;;;10.70;9.80;;;;;;;23.36;93.02;100570.75;4934519;29;20223;-77
2021/06/18 04:51:53;;;;;;;11.15;10.15;;;;;;;23.45;93.37;100568.59;4932752;28;20765;-76
2021/06/18 04:54:23;;;;;;;10.50;9.70;;;;;;;23.55;93.18;100573.59;4934280;29;20259;-77
2021/06/18 04:56:49;;;;;;;11.15;10.18;;;;;;;23.51;93.26;100575.47;4917845;29;20223;-77
2021/06/18 04:59:19;;;;;;;10.88;9.88;;;;;;;23.65;92.65;100569.13;4918544;29;20658;-76
2021/06/18 05:01:47;;;;;;;11.27;10.38;;;;;;;23.65;92.83;100571.91;4932386;29;20228;-77
2021/06/18 05:04:13;;;;;;;10.68;9.77;;;;;;;23.75;92.81;100576.88;4914434;29;20207;-76
2021/06/18 05:06:39;;;;;;;11.65;10.63;;;;;;;23.95;91.99;100570.22;4930999;29;20223;-77
2021/06/18 05:09:12;;;;;;;10.85;9.95;;;;;;;23.94;89.09;100576.94;4917832;29;20188;-77
2021/06/18 05:11:37;;;;;;;11.23;10.32;;;;;;;23.86;88.83;100577.94;4932399;29;20232;-78
2021/06/18 05:14:05;;;;;;;11.70;10.60;;;;;;;23.82;89.25;100574.28;4918503;29;20570;-77
2021/06/18 05:16:31;;;;;;;12.02;10.93;;;;;;;23.67;89.24;100585.41;4893187;29;20239;-77
2021/06/18 05:18:57;;;;;;;11.50;10.40;;;;;;;23.89;88.36;100584.75;4920179;29;20195;-77
2021/06/18 05:21:22;;;;;;;10.70;9.60;;;;;;;24.05;88.88;100589.09;4920246;29;20220;-77
2021/06/18 05:23:48;;;;;;;10.90;9.90;;;;;;;24.32;87.14;100585.34;4889805;29;20559;-78
2021/06/18 05:26:16;;;;;;;11.80;10.80;;;;;;;24.49;85.42;100580.19;4942315;28;20781;-77
2021/06/18 05:28:42;;;;;;;11.80;10.75;;;;;;;24.49;84.95;100592.09;4920909;29;20194;-78
2021/06/18 05:31:07;;;;;;;11.63;10.43;;;;;;;24.67;84.30;100595.22;4935966;28;20239;-78
2021/06/18 05:33:35;;;;;;;11.15;10.25;;;;;;;24.87;82.15;100594.81;4921511;29;20211;-76
2021/06/18 05:36:04;;;;;;;11.23;10.30;;;;;;;25.03;81.46;100592.78;4906379;29;20227;-76
2021/06/18 05:38:34;;;;;;;10.77;9.93;;;;;;;25.24;78.67;100594.78;4927897;29;20182;-77
2021/06/18 05:40:59;;;;;;;10.70;9.70;;;;;;;25.19;78.35;100597.88;4930214;29;20234;-77
2021/06/18 05:43:25;;;;;;;11.77;10.77;;;;;;;24.82;77.54;100597.94;4911748;29;20707;-77
2021/06/18 05:45:50;;;;;;;11.63;10.65;;;;;;;25.01;77.54;100592.38;4932371;29;20287;-78
2021/06/18 05:48:16;;;;;;;11.50;10.50;;;;;;;25.20;77.27;100593.94;4915968;29;20187;-78
2021/06/18 05:50:42;;;;;;;10.85;9.93;;;;;;;25.37;77.62;100590.66;4915627;29;20224;-77
2021/06/18 05:53:07;;;;;;;11.18;10.30;;;;;;;25.40;75.76;100598.25;4915114;29;20214;-78
2021/06/18 05:55:40;;;;;;;11.75;10.85;;;;;;;25.69;74.73;100598.38;4938358;29;20233;-77
2021/06/18 05:58:06;;;;;;;10.77;9.88;;;;;;;25.90;74.83;100603.47;4953950;29;20247;-79
2021/06/18 06:00:33;;;;;;;11.60;10.70;;;;;;;25.70;74.68;100597.19;4928983;29;20263;-76
2021/06/18 06:02:59;;;;;;;11.00;9.90;;;;;;;26.08;73.91;100595.00;4938495;29;20211;-76
2021/06/18 06:05:25;;;;;;;10.57;9.68;;;;;;;26.22;73.96;100597.22;4936759;28;20247;-76
2021/06/18 06:07:55;;;;;;;10.82;9.93;;;;;;;26.31;73.07;100596.53;4920511;29;20191;-78
2021/06/18 06:10:21;;;;;;;11.50;10.50;;;;;;;26.48;72.66;100603.53;4935872;28;20224;-77
2021/06/18 06:12:47;;;;;;;11.55;10.45;;;;;;;26.58;69.93;100602.88;4904581;29;20219;-77
2021/06/18 06:15:12;;;;;;;11.05;10.10;;;;;;;26.59;70.41;100610.06;4918535;28;20199;-76
2021/06/18 06:17:38;;;;;;;11.32;10.32;;;;;;;26.69;69.85;100612.19;4934499;29;20657;-76
2021/06/18 06:20:07;;;;;;;11.90;10.90;;;;;;;26.84;68.70;100612.00;4932721;28;20198;-76
2021/06/18 06:22:35;;;;;;;12.27;10.50;;;;;;;27.04;67.89;100611.44;4917685;29;20294;-76
2021/06/18 06:25:01;;;;;;;11.45;10.55;;;;;;;26.48;70.01;100617.47;4920816;29;20263;-76
2021/06/18 06:27:29;;;;;;;10.07;9.20;;;;;;;27.03;68.79;100611.81;4937281;28;20223;-76
2021/06/18 06:30:00;;;;;;;10.07;9.07;;;;;;;26.90;64.23;100614.03;4883201;29;20193;-78
2021/06/18 06:32:25;;;;;;;9.80;8.90;;;;;;;26.95;64.00;100610.13;4927438;29;20233;-75
2021/06/18 06:34:51;;;;;;;10.15;9.15;;;;;;;26.96;64.69;100617.31;4918413;29;20192;-76
2021/06/18 06:37:16;;;;;;;9.45;8.55;;;;;;;27.11;64.12;100619.88;4914550;29;20936;-76
2021/06/18 06:39:42;;;;;;;10.00;9.15;;;;;;;27.36;63.59;100621.75;4920295;29;20210;-76
2021/06/18 06:42:08;;;;;;;9.85;9.05;;;;;;;27.25;63.16;100625.59;4918393;29;20222;-79
2021/06/18 06:44:34;;;;;;;9.77;8.98;;;;;;;27.74;62.18;100615.72;4934005;29;20247;-76
2021/06/18 06:46:59;;;;;;;9.77;8.98;;;;;;;27.70;60.26;100615.69;4934143;28;20254;-76
2021/06/18 06:49:25;;;;;;;9.75;8.85;;;;;;;27.84;61.98;100621.38;4899544;29;20674;-76
2021/06/18 06:51:51;;;;;;;9.82;8.90;;;;;;;27.77;61.59;100624.13;4914884;29;20655;-77
2021/06/18 06:54:19;;;;;;;10.07;9.07;;;;;;;27.88;61.20;100622.22;4910301;29;20200;-76
2021/06/18 06:56:45;;;;;;;10.13;9.13;;;;;;;28.04;62.33;100631.13;4922270;29;20232;-76
2021/06/18 06:59:14;;;;;;;9.95;9.15;;;;;;;27.77;61.67;100635.28;4901523;29;20290;-76
2021/06/18 07:01:42;;;;;;;11.77;9.50;;;;;;;27.85;61.84;100636.94;4916087;29;20235;-75
2021/06/18 07:04:08;;;;;;;10.13;9.32;;;;;;;28.28;60.10;100620.94;4918207;29;20291;-76
2021/06/18 07:06:35;;;;;;;9.55;8.85;;;;;;;28.51;58.57;100618.63;4933528;29;20306;-76
2021/06/18 07:09:01;;;;;;;9.50;8.70;;;;;;;28.39;58.53;100616.19;4918365;29;20183;-76
2021/06/18 07:11:27;;;;;;;9.15;8.45;;;;;;;28.48;58.85;100613.84;4897462;29;20242;-78
2021/06/18 07:13:55;;;;;;;8.90;8.18;;;;;;;28.66;58.08;100609.16;4932873;29;20207;-77
2021/06/18 07:16:20;;;;;;;8.90;8.20;;;;;;;28.86;57.28;100613.22;4901711;29;20230;-76
2021/06/18 07:18:48;;;;;;;9.45;8.48;;;;;;;28.91;56.06;100610.06;4917575;29;20466;-76
2021/06/18 07:21:14;;;;;;;9.23;8.20;;;;;;;29.22;54.53;100610.94;4896892;29;20220;-77
2021/06/18 07:23:42;;;;;;;9.32;8.13;;;;;;;29.30;54.50;100600.56;4914263;29;20216;-78
2021/06/18 07:26:10;;;;;;;9.07;8.20;;;;;;;29.34;54.32;100606.97;4931351;29;20227;-77
2021/06/18 07:28:37;;;;;;;9.63;8.82;;;;;;;29.21;54.66;100606.56;4915495;29;20184;-78
2021/06/18 07:31:03;;;;;;;8.90;8.10;;;;;;;29.49;55.23;100609.41;4901042;29;20231;-76
2021/06/18 07:33:34;;;;;;;9.27;8.48;;;;;;;29.66;53.87;100597.41;4933618;29;20291;-76
2021/06/18 07:36:00;;;;;;;8.63;7.88;;;;;;;29.84;53.61;100603.84;4917407;29;20231;-77
2021/06/18 07:38:26;;;;;;;9.05;8.20;;;;;;;29.87;53.42;100596.22;4932535;29;20184;-77
2021/06/18 07:40:51;;;;;;;9.77;8.80;;;;;;;29.50;53.42;100605.38;4916183;29;20720;-77
2021/06/18 07:43:19;;;;;;;9.13;8.43;;;;;;;29.69;52.96;100591.78;4918234;29;20870;-77
2021/06/18 07:45:45;;;;;;;8.40;7.70;;;;;;;29.59;54.45;100598.19;4918288;29;20317;-76
2021/06/18 07:48:13;;;;;;;10.82;8.00;;;;;;;29.93;54.13;100597.41;4919097;29;20184;-77
2021/06/18 07:50:43;;;;;;;9.90;8.82;;;;;;;29.63;53.96;100586.97;4934202;28;20352;-76
2021/06/18 07:53:09;;;;;;;9.38;8.02;;;;;;;29.82;53.89;100589.38;4918975;29;20222;-77
2021/06/18 07:55:35;;;;;;;9.13;8.43;;;;;;;29.93;53.14;100597.41;4922230;29;20218;-76
2021/06/18 07:58:03;;;;;;;9.55;8.15;;;;;;;29.61;53.80;100589.38;4918414;29;20188;-76
2021/06/18 08:00:29;;;;;;;9.07;8.23;;;;;;;29.48;54.63;100582.56;4932677;28;20231;-76
2021/06/18 08:02:55;;;;;;;9.93;8.48;;;;;;;29.63;53.98;100584.97;4917222;29;20322;-77
2021/06/18 08:05:21;;;;;;;9.52;8.73;;;;;;;29.78;53.85;100594.19;4913940;29;20196;-78
2021/06/18 08:07:53;;;;;;;8.90;8.15;;;;;;;29.80;53.92;100586.19;4917396;29;20187;-77
2021/06/18 08:10:20;;;;;;;9.23;8.35;;;;;;;30.26;52.63;100596.94;4900073;28;20206;-77
2021/06/18 08:12:48;;;;;;;8.88;8.05;;;;;;;30.61;51.58;100585.63;4916292;29;20707;-77
2021/06/18 08:15:14;;;;;;;9.30;8.20;;;;;;;30.45;51.78;100585.28;4901477;28;20184;-77
2021/06/18 08:17:44;;;;;;;9.00;8.20;;;;;;;30.97;50.44;100587.88;4917268;29;20274;-77
2021/06/18 08:20:12;;;;;;;9.77;8.77;;;;;;;30.62;50.51;100587.22;4915846;28;20270;-77
2021/06/18 08:22:41;;;;;;;10.98;8.20;;;;;;;30.97;50.41;100577.47;4902468;29;20200;-77
2021/06/18 08:25:09;;;;;;;9.98;9.02;;;;;;;31.15;49.09;100583.75;4917515;28;20680;-76
2021/06/18 08:27:34;;;;;;;8.77;7.88;;;;;;;31.61;48.58;100577.41;4932207;29;20184;-77
2021/06/18 08:30:00;;;;;;;8.77;7.93;;;;;;;31.73;49.39;100585.31;4899662;29;20186;-77
2021/06/18 08:32:26;;;;;;;9.15;8.30;;;;;;;31.56;49.36;100594.72;4912736;29;20228;-76
2021/06/18 08:34:54;;;;;;;12.20;8.80;;;;;;;31.01;49.68;100586.66;4898024;29;20192;-77
2021/06/18 08:37:19;;;;;;;8.90;8.20;;;;;;;31.51;49.29;100585.91;4930530;28;20231;-77
2021/06/18 08:39:47;;;;;;;8.73;7.95;;;;;;;31.82;48.34;100588.47;4916597;29;20250;-76
2021/06/18 08:42:13;;;;;;;9.65;8.65;;;;;;;32.14;48.42;100584.13;4915570;29;20615;-78
2021/06/18 08:44:45;;;;;;;9.50;8.73;;;;;;;32.18;46.62;100584.09;4931946;29;20184;-77
2021/06/18 08:47:14;;;;;;;8.90;8.20;;;;;;;32.03;47.36;100579.84;4915691;29;20227;-76
2021/06/18 08:49:43;;;;;;;8.50;7.70;;;;;;;32.41;47.25;100583.06;4917267;29;20191;-75
2021/06/18 08:52:09;;;;;;;8.95;8.25;;;;;;;32.61;48.58;100576.38;4900266;29;20231;-76
2021/06/18 08:54:41;;;;;;;8.30;7.50;;;;;;;31.97;45.02;100585.13;4920126;29;20191;-77
2021/06/18 08:57:18;;;;;;;8.30;7.57;;;;;;;32.01;47.05;100576.66;4901195;29;20231;-75
2021/06/18 08:59:49;;;;;;;8.35;7.65;;;;;;;32.18;45.72;100572.84;4903668;29;20633;-74
2021/06/18 09:02:19;;;;;;;8.50;7.80;;;;;;;31.75;46.56;100563.22;4930862;29;20232;-74
2021/06/18 09:05:09;;;;;;;8.55;7.95;;;;;;;31.74;45.62;100558.81;4935455;29;20195;-76
2021/06/18 09:08:02;;;;;;;9.13;8.32;;;;;;;32.32;44.93;100556.59;4920449;29;20255;-77
2021/06/18 09:10:34;;;;;;;8.75;7.97;;;;;;;32.40;45.40;100553.34;4919315;29;20227;-75
2021/06/18 09:13:06;;;;;;;8.32;7.57;;;;;;;32.60;45.14;100545.81;4935862;29;20212;-76
2021/06/18 09:15:38;;;;;;;9.30;8.50;;;;;;;32.89;43.73;100542.22;4919633;29;20219;-75
2021/06/18 09:18:29;;;;;;;8.35;7.75;;;;;;;32.74;43.73;100540.00;4923337;29;20183;-75
2021/06/18 09:21:13;;;;;;;9.18;8.43;;;;;;;32.33;45.07;100536.50;4916027;29;20235;-75
2021/06/18 09:23:47;;;;;;;9.40;8.70;;;;;;;32.29;46.20;100538.56;4920586;29;20203;-77
2021/06/18 09:26:38;;;;;;;9.10;8.30;;;;;;;32.32;45.94;100540.50;4925901;29;20223;-74
2021/06/18 09:29:08;;;;;;;9.52;8.70;;;;;;;32.57;45.32;100535.41;4900887;29;20684;-75
2021/06/18 09:31:59;;;;;;;9.48;8.48;;;;;;;32.48;45.54;100542.78;4899944;29;20224;-77
2021/06/18 09:35:00;;;;;;;8.38;7.68;;;;;;;32.82;44.00;100541.50;4933097;29;20188;-77
2021/06/18 09:37:36;;;;;;;8.48;7.68;;;;;;;32.47;44.87;100541.97;4926417;28;20310;-76
2021/06/18 09:40:20;;;;;;;9.60;8.70;;;;;;;32.55;45.29;100537.84;4918517;29;20185;-77
2021/06/18 09:42:47;;;;;;;9.13;8.23;;;;;;;32.68;44.27;100542.50;4935076;29;20713;-76
2021/06/18 09:45:16;;;;;;;8.43;7.50;;;;;;;32.58;43.88;100537.00;4920104;28;20214;-76
2021/06/18 09:47:44;;;;;;;9.15;8.35;;;;;;;32.72;44.31;100536.81;4893257;29;20184;-77
2021/06/18 09:50:20;;;;;;;8.90;8.10;;;;;;;32.87;43.64;100535.44;4916016;29;20279;-77
2021/06/18 09:52:48;;;;;;;8.73;8.02;;;;;;;33.13;43.69;100536.25;4930516;29;20222;-77
2021/06/18 09:55:20;;;;;;;9.25;8.35;;;;;;;33.64;42.83;100538.63;4924616;28;20222;-76
2021/06/18 09:57:55;;;;;;;9.48;8.68;;;;;;;33.57;42.33;100527.47;4918937;29;20188;-77
2021/06/18 10:00:24;;;;;;;9.23;8.35;;;;;;;33.53;42.11;100538.03;4934504;28;20714;-78
2021/06/18 10:02:53;;;;;;;8.88;8.18;;;;;;;33.95;43.43;100526.81;4919965;29;20279;-77
2021/06/18 10:05:32;;;;;;;8.90;8.10;;;;;;;34.31;42.58;100531.31;4918732;28;20176;-78
2021/06/18 10:07:58;;;;;;;8.85;8.20;;;;;;;34.03;41.60;100525.44;4936863;29;20640;-77
2021/06/18 10:10:28;;;;;;;8.65;7.85;;;;;;;34.08;42.95;100525.72;4902905;28;20223;-75
2021/06/18 10:12:54;;;;;;;8.65;7.95;;;;;;;34.30;41.69;100524.88;4936416;29;20306;-76
2021/06/18 10:15:23;;;;;;;8.95;8.25;;;;;;;34.59;41.86;100518.22;4918181;28;20188;-76
2021/06/18 10:17:54;;;;;;;9.20;8.40;;;;;;;34.20;42.23;100525.09;4918363;29;20180;-78
2021/06/18 10:20:24;;;;;;;8.70;8.00;;;;;;;34.63;41.57;100524.59;4913709;28;20685;-75
2021/06/18 10:23:03;;;;;;;12.75;8.10;;;;;;;34.81;40.71;100516.53;4933331;29;20319;-78
2021/06/18 10:25:38;;;;;;;9.07;7.07;;;;;;;34.77;40.72;100509.38;4924069;28;20229;-76
2021/06/18 10:28:05;;;;;;;9.88;7.45;;;;;;;34.99;40.23;100514.13;4932371;29;20183;-75
2021/06/18 10:30:35;;;;;;;8.48;7.43;;;;;;;34.97;39.80;100510.94;4915433;29;20732;-76
2021/06/18 10:33:27;;;;;;;9.05;8.20;;;;;;;35.04;40.14;100510.78;4932581;29;20211;-75
2021/06/18 10:36:10;;;;;;;8.40;7.70;;;;;;;35.11;40.37;100511.41;4929225;28;20231;-75
2021/06/18 10:39:09;;;;;;;8.43;7.68;;;;;;;35.46;38.11;100511.34;4931508;29;20690;-77
2021/06/18 10:41:45;;;;;;;8.77;7.97;;;;;;;35.57;37.82;100506.22;4931419;29;20227;-76
2021/06/18 10:44:11;;;;;;;8.55;7.85;;;;;;;34.71;39.42;100503.44;4917190;29;20220;-75
2021/06/18 10:46:37;;;;;;;8.90;7.88;;;;;;;35.24;38.80;100508.66;4885501;29;20231;-76
2021/06/18 10:49:07;;;;;;;8.15;7.38;;;;;;;34.84;39.03;100512.84;4917305;29;20191;-76
2021/06/18 10:51:38;;;;;;;8.55;7.82;;;;;;;35.15;39.47;100506.47;4915716;29;20737;-76
2021/06/18 10:54:29;;;;;;;8.43;7.72;;;;;;;35.24;38.57;100515.13;4914251;29;20192;-77
2021/06/18 10:56:55;;;;;;;9.00;8.23;;;;;;;35.21;37.91;100509.53;4901703;29;20211;-76
2021/06/18 10:59:33;;;;;;;8.90;8.13;;;;;;;35.19;39.10;100501.50;4916577;29;20243;-75
2021/06/18 11:02:04;;;;;;;8.98;8.05;;;;;;;35.08;38.95;100495.31;4930341;28;20735;-75
2021/06/18 11:04:40;;;;;;;8.63;7.82;;;;;;;35.39;38.58;100500.22;4913736;29;20204;-75
2021/06/18 11:07:33;;;;;;;9.15;8.25;;;;;;;36.00;37.91;100501.03;4912871;29;20239;-76
2021/06/18 11:09:59;;;;;;;8.75;8.05;;;;;;;35.95;38.10;100498.72;4931028;29;20176;-76
2021/06/18 11:12:26;;;;;;;10.07;7.88;;;;;;;36.50;36.58;100499.16;4914448;29;20255;-75
2021/06/18 11:15:03;;;;;;;8.30;7.50;;;;;;;36.70;36.13;100497.75;4933575;29;20219;-77
2021/06/18 11:17:45;;;;;;;10.13;7.57;;;;;;;36.83;35.52;100498.56;4913853;29;20235;-77
2021/06/18 11:20:15;;;;;;;10.52;7.97;;;;;;;36.35;36.17;100501.63;4926640;28;20278;-74
2021/06/18 11:23:04;;;;;;;9.57;8.07;;;;;;;36.73;38.18;100488.38;4913518;29;20212;-75
2021/06/18 11:25:38;;;;;;;8.52;7.85;;;;;;;36.64;37.61;100491.06;4936690;28;20230;-76
2021/06/18 11:28:21;;;;;;;8.50;7.80;;;;;;;36.43;36.57;100485.22;4932415;29;20204;-75
2021/06/18 11:30:51;;;;;;;8.30;7.68;;;;;;;35.76;38.11;100491.19;4905614;29;20743;-75
2021/06/18 11:33:49;;;;;;;8.13;7.38;;;;;;;36.07;38.12;100490.28;4932295;29;20286;-79